sensor_id;sensor_type;location;lat;lon;timestamp;P1;durP1;ratioP1;P2;durP2;ratioP2
29384;SDS011;16367;48.736;9.218;2022-08-19T00:01:08;18.73;;;16.83;;
29384;SDS011;16367;48.736;9.218;2022-08-19T00:03:11;18.97;;;17.07;;
29384;SDS011;16367;48.736;9.218;2022-08-19T00:05:14;18.33;;;16.53;;
29384;SDS011;16367;48.736;9.218;2022-08-19T00:07:17;18.00;;;16.23;;
29384;SDS011;16367;48.736;9.218;2022-08-19T00:09:21;18.53;;;16.73;;
29384;SDS011;16367;48.736;9.218;2022-08-19T00:11:25;16.83;;;15.20;;
29384;SDS011;16367;48.736;9.218;2022-08-19T00:13:28;17.03;;;15.40;;
29384;SDS011;16367;48.736;9.218;2022-08-19T00:15:32;19.00;;;17.13;;
29384;SDS011;16367;48.736;9.218;2022-08-19T00:17:35;18.07;;;16.27;;
29384;SDS011;16367;48.736;9.218;2022-08-19T00:19:42;18.63;;;16.77;;
29384;SDS011;16367;48.736;9.218;2022-08-19T00:21:45;20.17;;;17.30;;
29384;SDS011;16367;48.736;9.218;2022-08-19T00:23:47;18.33;;;16.47;;
29384;SDS011;16367;48.736;9.218;2022-08-19T00:25:50;17.53;;;15.83;;
29384;SDS011;16367;48.736;9.218;2022-08-19T00:27:53;21.47;;;17.47;;
29384;SDS011;16367;48.736;9.218;2022-08-19T00:29:55;18.03;;;16.33;;
29384;SDS011;16367;48.736;9.218;2022-08-19T00:32:01;18.03;;;16.33;;
29384;SDS011;16367;48.736;9.218;2022-08-19T00:34:04;18.53;;;16.60;;
29384;SDS011;16367;48.736;9.218;2022-08-19T00:36:07;18.83;;;17.03;;
29384;SDS011;16367;48.736;9.218;2022-08-19T00:38:11;17.87;;;16.07;;
29384;SDS011;16367;48.736;9.218;2022-08-19T00:40:14;19.17;;;17.20;;
29384;SDS011;16367;48.736;9.218;2022-08-19T00:42:19;19.90;;;18.00;;
29384;SDS011;16367;48.736;9.218;2022-08-19T00:44:24;18.33;;;16.43;;
29384;SDS011;16367;48.736;9.218;2022-08-19T00:46:29;19.57;;;17.57;;
29384;SDS011;16367;48.736;9.218;2022-08-19T00:48:35;20.27;;;18.17;;
29384;SDS011;16367;48.736;9.218;2022-08-19T00:50:38;19.43;;;17.53;;
29384;SDS011;16367;48.736;9.218;2022-08-19T00:52:52;20.00;;;18.00;;
29384;SDS011;16367;48.736;9.218;2022-08-19T00:54:56;19.47;;;17.43;;
29384;SDS011;16367;48.736;9.218;2022-08-19T00:57:00;18.40;;;16.60;;
29384;SDS011;16367;48.736;9.218;2022-08-19T00:59:05;18.90;;;17.00;;
29384;SDS011;16367;48.736;9.218;2022-08-19T01:01:10;19.30;;;17.20;;
29384;SDS011;16367;48.736;9.218;2022-08-19T01:03:15;18.27;;;16.43;;
29384;SDS011;16367;48.736;9.218;2022-08-19T01:05:22;21.33;;;17.30;;
29384;SDS011;16367;48.736;9.218;2022-08-19T01:07:28;19.47;;;17.47;;
29384;SDS011;16367;48.736;9.218;2022-08-19T01:09:38;19.20;;;17.30;;
29384;SDS011;16367;48.736;9.218;2022-08-19T01:11:41;18.50;;;16.70;;
29384;SDS011;16367;48.736;9.218;2022-08-19T01:13:46;19.73;;;17.73;;
29384;SDS011;16367;48.736;9.218;2022-08-19T01:15:51;18.63;;;16.70;;
29384;SDS011;16367;48.736;9.218;2022-08-19T01:18:01;20.70;;;18.60;;
29384;SDS011;16367;48.736;9.218;2022-08-19T01:20:10;19.63;;;17.53;;
29384;SDS011;16367;48.736;9.218;2022-08-19T01:22:16;21.47;;;17.80;;
29384;SDS011;16367;48.736;9.218;2022-08-19T01:24:34;19.03;;;16.63;;
29384;SDS011;16367;48.736;9.218;2022-08-19T01:26:50;21.47;;;16.80;;
29384;SDS011;16367;48.736;9.218;2022-08-19T01:28:56;19.03;;;17.03;;
29384;SDS011;16367;48.736;9.218;2022-08-19T01:31:02;19.57;;;17.57;;
29384;SDS011;16367;48.736;9.218;2022-08-19T01:33:08;18.97;;;17.07;;
29384;SDS011;16367;48.736;9.218;2022-08-19T01:35:12;19.70;;;17.70;;
29384;SDS011;16367;48.736;9.218;2022-08-19T01:37:19;19.77;;;17.77;;
29384;SDS011;16367;48.736;9.218;2022-08-19T01:39:27;19.50;;;17.50;;
29384;SDS011;16367;48.736;9.218;2022-08-19T01:41:31;19.10;;;17.17;;
29384;SDS011;16367;48.736;9.218;2022-08-19T01:43:34;18.50;;;16.80;;
29384;SDS011;16367;48.736;9.218;2022-08-19T01:45:57;18.50;;;16.50;;
29384;SDS011;16367;48.736;9.218;2022-08-19T01:48:00;18.57;;;16.77;;
29384;SDS011;16367;48.736;9.218;2022-08-19T01:50:03;21.50;;;18.10;;
29384;SDS011;16367;48.736;9.218;2022-08-19T01:52:08;20.00;;;17.90;;
29384;SDS011;16367;48.736;9.218;2022-08-19T01:54:12;21.53;;;19.20;;
29384;SDS011;16367;48.736;9.218;2022-08-19T01:56:27;20.70;;;17.30;;
29384;SDS011;16367;48.736;9.218;2022-08-19T01:58:34;18.97;;;17.00;;
29384;SDS011;16367;48.736;9.218;2022-08-19T02:00:43;21.00;;;18.13;;
29384;SDS011;16367;48.736;9.218;2022-08-19T02:02:46;20.70;;;18.10;;
29384;SDS011;16367;48.736;9.218;2022-08-19T02:04:49;20.60;;;18.37;;
29384;SDS011;16367;48.736;9.218;2022-08-19T02:06:51;20.40;;;18.30;;
29384;SDS011;16367;48.736;9.218;2022-08-19T02:08:54;20.33;;;18.07;;
29384;SDS011;16367;48.736;9.218;2022-08-19T02:10:58;20.70;;;18.60;;
29384;SDS011;16367;48.736;9.218;2022-08-19T02:13:00;19.87;;;17.23;;
29384;SDS011;16367;48.736;9.218;2022-08-19T02:15:06;21.30;;;18.60;;
29384;SDS011;16367;48.736;9.218;2022-08-19T02:17:09;19.70;;;17.80;;
29384;SDS011;16367;48.736;9.218;2022-08-19T02:19:13;22.37;;;20.00;;
29384;SDS011;16367;48.736;9.218;2022-08-19T02:21:16;21.60;;;19.33;;
29384;SDS011;16367;48.736;9.218;2022-08-19T02:23:19;21.97;;;19.53;;
29384;SDS011;16367;48.736;9.218;2022-08-19T02:25:21;20.53;;;18.30;;
29384;SDS011;16367;48.736;9.218;2022-08-19T02:27:24;23.60;;;20.67;;
29384;SDS011;16367;48.736;9.218;2022-08-19T02:29:27;21.90;;;19.13;;
29384;SDS011;16367;48.736;9.218;2022-08-19T02:31:31;22.13;;;19.77;;
29384;SDS011;16367;48.736;9.218;2022-08-19T02:33:34;22.13;;;19.83;;
29384;SDS011;16367;48.736;9.218;2022-08-19T02:35:37;22.23;;;19.27;;
29384;SDS011;16367;48.736;9.218;2022-08-19T02:37:43;21.70;;;19.30;;
29384;SDS011;16367;48.736;9.218;2022-08-19T02:40:04;22.23;;;19.73;;
29384;SDS011;16367;48.736;9.218;2022-08-19T02:42:13;24.80;;;20.10;;
29384;SDS011;16367;48.736;9.218;2022-08-19T02:44:16;22.63;;;18.77;;
29384;SDS011;16367;48.736;9.218;2022-08-19T02:46:32;23.13;;;20.73;;
29384;SDS011;16367;48.736;9.218;2022-08-19T02:48:35;22.70;;;20.30;;
29384;SDS011;16367;48.736;9.218;2022-08-19T02:50:38;23.10;;;20.60;;
29384;SDS011;16367;48.736;9.218;2022-08-19T02:52:53;22.50;;;20.13;;
29384;SDS011;16367;48.736;9.218;2022-08-19T02:54:56;22.83;;;20.47;;
29384;SDS011;16367;48.736;9.218;2022-08-19T02:56:59;26.30;;;22.40;;
29384;SDS011;16367;48.736;9.218;2022-08-19T02:59:02;23.03;;;20.40;;
29384;SDS011;16367;48.736;9.218;2022-08-19T03:01:19;25.03;;;21.20;;
29384;SDS011;16367;48.736;9.218;2022-08-19T03:03:25;23.63;;;20.43;;
29384;SDS011;16367;48.736;9.218;2022-08-19T03:05:28;25.43;;;22.73;;
29384;SDS011;16367;48.736;9.218;2022-08-19T03:07:51;26.97;;;21.13;;
29384;SDS011;16367;48.736;9.218;2022-08-19T03:09:54;24.43;;;21.77;;
29384;SDS011;16367;48.736;9.218;2022-08-19T03:11:56;23.60;;;21.03;;
29384;SDS011;16367;48.736;9.218;2022-08-19T03:14:00;26.03;;;22.87;;
29384;SDS011;16367;48.736;9.218;2022-08-19T03:16:05;26.57;;;22.87;;
29384;SDS011;16367;48.736;9.218;2022-08-19T03:18:08;28.10;;;22.97;;
29384;SDS011;16367;48.736;9.218;2022-08-19T03:20:14;24.23;;;21.63;;
29384;SDS011;16367;48.736;9.218;2022-08-19T03:22:17;29.10;;;23.63;;
29384;SDS011;16367;48.736;9.218;2022-08-19T03:24:21;28.10;;;24.40;;
29384;SDS011;16367;48.736;9.218;2022-08-19T03:26:23;28.37;;;23.70;;
29384;SDS011;16367;48.736;9.218;2022-08-19T03:28:26;28.37;;;23.70;;
29384;SDS011;16367;48.736;9.218;2022-08-19T03:30:29;28.03;;;24.50;;
29384;SDS011;16367;48.736;9.218;2022-08-19T03:32:33;28.87;;;23.70;;
29384;SDS011;16367;48.736;9.218;2022-08-19T03:34:45;32.80;;;26.20;;
29384;SDS011;16367;48.736;9.218;2022-08-19T03:36:49;31.07;;;24.10;;
29384;SDS011;16367;48.736;9.218;2022-08-19T03:38:53;28.13;;;24.17;;
29384;SDS011;16367;48.736;9.218;2022-08-19T03:41:02;30.57;;;25.80;;
29384;SDS011;16367;48.736;9.218;2022-08-19T03:43:07;27.50;;;24.03;;
29384;SDS011;16367;48.736;9.218;2022-08-19T03:45:10;26.97;;;23.93;;
29384;SDS011;16367;48.736;9.218;2022-08-19T03:47:12;28.63;;;23.93;;
29384;SDS011;16367;48.736;9.218;2022-08-19T03:49:18;25.57;;;22.87;;
29384;SDS011;16367;48.736;9.218;2022-08-19T03:51:29;28.20;;;23.93;;
29384;SDS011;16367;48.736;9.218;2022-08-19T03:53:35;25.43;;;22.30;;
29384;SDS011;16367;48.736;9.218;2022-08-19T03:55:39;29.73;;;24.70;;
29384;SDS011;16367;48.736;9.218;2022-08-19T03:57:42;27.60;;;24.37;;
29384;SDS011;16367;48.736;9.218;2022-08-19T03:59:46;27.80;;;24.13;;
29384;SDS011;16367;48.736;9.218;2022-08-19T04:01:48;28.80;;;25.80;;
29384;SDS011;16367;48.736;9.218;2022-08-19T04:03:51;30.30;;;25.90;;
29384;SDS011;16367;48.736;9.218;2022-08-19T04:05:55;28.03;;;24.93;;
29384;SDS011;16367;48.736;9.218;2022-08-19T04:07:58;31.23;;;25.57;;
29384;SDS011;16367;48.736;9.218;2022-08-19T04:10:03;29.27;;;25.97;;
29384;SDS011;16367;48.736;9.218;2022-08-19T04:12:10;29.83;;;26.00;;
29384;SDS011;16367;48.736;9.218;2022-08-19T04:14:15;28.43;;;25.43;;
29384;SDS011;16367;48.736;9.218;2022-08-19T04:16:20;31.20;;;26.40;;
29384;SDS011;16367;48.736;9.218;2022-08-19T04:18:35;30.60;;;27.00;;
29384;SDS011;16367;48.736;9.218;2022-08-19T04:20:43;30.50;;;25.30;;
29384;SDS011;16367;48.736;9.218;2022-08-19T04:22:47;27.20;;;24.30;;
29384;SDS011;16367;48.736;9.218;2022-08-19T04:24:50;31.10;;;26.50;;
29384;SDS011;16367;48.736;9.218;2022-08-19T04:26:54;30.97;;;27.20;;
29384;SDS011;16367;48.736;9.218;2022-08-19T04:28:57;31.10;;;27.70;;
29384;SDS011;16367;48.736;9.218;2022-08-19T04:31:00;31.80;;;28.40;;
29384;SDS011;16367;48.736;9.218;2022-08-19T04:33:03;34.30;;;27.47;;
29384;SDS011;16367;48.736;9.218;2022-08-19T04:35:06;32.40;;;27.97;;
29384;SDS011;16367;48.736;9.218;2022-08-19T04:37:19;29.93;;;26.63;;
29384;SDS011;16367;48.736;9.218;2022-08-19T04:39:23;33.20;;;27.40;;
29384;SDS011;16367;48.736;9.218;2022-08-19T04:41:48;30.47;;;26.43;;
29384;SDS011;16367;48.736;9.218;2022-08-19T04:44:10;33.60;;;28.00;;
29384;SDS011;16367;48.736;9.218;2022-08-19T04:46:14;29.60;;;25.50;;
29384;SDS011;16367;48.736;9.218;2022-08-19T04:48:38;30.90;;;26.30;;
29384;SDS011;16367;48.736;9.218;2022-08-19T04:50:49;30.50;;;26.83;;
29384;SDS011;16367;48.736;9.218;2022-08-19T04:52:53;29.27;;;25.20;;
29384;SDS011;16367;48.736;9.218;2022-08-19T04:54:57;32.13;;;28.00;;
29384;SDS011;16367;48.736;9.218;2022-08-19T04:57:00;33.87;;;27.53;;
29384;SDS011;16367;48.736;9.218;2022-08-19T04:59:02;32.13;;;27.43;;
29384;SDS011;16367;48.736;9.218;2022-08-19T05:01:07;33.70;;;27.30;;
29384;SDS011;16367;48.736;9.218;2022-08-19T05:03:11;31.70;;;27.07;;
29384;SDS011;16367;48.736;9.218;2022-08-19T05:05:14;34.80;;;28.47;;
29384;SDS011;16367;48.736;9.218;2022-08-19T05:07:17;28.23;;;25.17;;
29384;SDS011;16367;48.736;9.218;2022-08-19T05:09:20;32.67;;;28.03;;
29384;SDS011;16367;48.736;9.218;2022-08-19T05:11:25;31.63;;;28.17;;
29384;SDS011;16367;48.736;9.218;2022-08-19T05:13:29;31.97;;;27.73;;
29384;SDS011;16367;48.736;9.218;2022-08-19T05:15:32;34.43;;;27.67;;
29384;SDS011;16367;48.736;9.218;2022-08-19T05:17:37;29.50;;;26.40;;
29384;SDS011;16367;48.736;9.218;2022-08-19T05:20:00;34.13;;;28.97;;
29384;SDS011;16367;48.736;9.218;2022-08-19T05:22:20;32.20;;;26.80;;
29384;SDS011;16367;48.736;9.218;2022-08-19T05:24:36;30.37;;;26.90;;
29384;SDS011;16367;48.736;9.218;2022-08-19T05:26:59;28.73;;;25.63;;
29384;SDS011;16367;48.736;9.218;2022-08-19T05:29:03;36.47;;;28.40;;
29384;SDS011;16367;48.736;9.218;2022-08-19T05:31:10;30.47;;;27.27;;
29384;SDS011;16367;48.736;9.218;2022-08-19T05:33:15;29.17;;;26.00;;
29384;SDS011;16367;48.736;9.218;2022-08-19T05:35:17;32.30;;;27.80;;
29384;SDS011;16367;48.736;9.218;2022-08-19T05:37:20;28.87;;;25.77;;
29384;SDS011;16367;48.736;9.218;2022-08-19T05:39:24;30.03;;;26.83;;
29384;SDS011;16367;48.736;9.218;2022-08-19T05:41:29;31.90;;;26.80;;
29384;SDS011;16367;48.736;9.218;2022-08-19T05:43:32;29.73;;;26.63;;
29384;SDS011;16367;48.736;9.218;2022-08-19T05:45:37;30.27;;;26.60;;
29384;SDS011;16367;48.736;9.218;2022-08-19T05:47:41;31.63;;;26.17;;
29384;SDS011;16367;48.736;9.218;2022-08-19T05:49:45;31.97;;;28.57;;
29384;SDS011;16367;48.736;9.218;2022-08-19T05:51:47;30.07;;;26.20;;
29384;SDS011;16367;48.736;9.218;2022-08-19T05:53:51;32.47;;;28.20;;
29384;SDS011;16367;48.736;9.218;2022-08-19T05:55:54;30.00;;;26.77;;
29384;SDS011;16367;48.736;9.218;2022-08-19T05:57:58;30.87;;;27.00;;
29384;SDS011;16367;48.736;9.218;2022-08-19T06:00:03;30.97;;;25.80;;
29384;SDS011;16367;48.736;9.218;2022-08-19T06:02:10;32.10;;;27.80;;
29384;SDS011;16367;48.736;9.218;2022-08-19T06:04:14;29.73;;;26.60;;
29384;SDS011;16367;48.736;9.218;2022-08-19T06:06:20;30.13;;;25.63;;
29384;SDS011;16367;48.736;9.218;2022-08-19T06:08:23;28.63;;;25.63;;
29384;SDS011;16367;48.736;9.218;2022-08-19T06:10:34;28.93;;;25.80;;
29384;SDS011;16367;48.736;9.218;2022-08-19T06:12:38;29.00;;;25.83;;
29384;SDS011;16367;48.736;9.218;2022-08-19T06:14:40;32.00;;;27.13;;
29384;SDS011;16367;48.736;9.218;2022-08-19T06:16:44;31.70;;;26.77;;
29384;SDS011;16367;48.736;9.218;2022-08-19T06:18:47;29.87;;;26.57;;
29384;SDS011;16367;48.736;9.218;2022-08-19T06:20:52;30.27;;;25.40;;
29384;SDS011;16367;48.736;9.218;2022-08-19T06:22:57;29.83;;;26.17;;
29384;SDS011;16367;48.736;9.218;2022-08-19T06:25:00;29.17;;;26.07;;
29384;SDS011;16367;48.736;9.218;2022-08-19T06:27:05;31.70;;;28.30;;
29384;SDS011;16367;48.736;9.218;2022-08-19T06:29:08;37.23;;;28.33;;
29384;SDS011;16367;48.736;9.218;2022-08-19T06:31:25;32.13;;;28.20;;
29384;SDS011;16367;48.736;9.218;2022-08-19T06:33:29;36.77;;;31.20;;
29384;SDS011;16367;48.736;9.218;2022-08-19T06:35:33;33.87;;;28.30;;
29384;SDS011;16367;48.736;9.218;2022-08-19T06:37:41;33.80;;;28.03;;
29384;SDS011;16367;48.736;9.218;2022-08-19T06:39:45;33.90;;;29.73;;
29384;SDS011;16367;48.736;9.218;2022-08-19T06:41:49;33.73;;;29.70;;
29384;SDS011;16367;48.736;9.218;2022-08-19T06:43:58;35.27;;;29.20;;
29384;SDS011;16367;48.736;9.218;2022-08-19T06:46:01;33.77;;;30.10;;
29384;SDS011;16367;48.736;9.218;2022-08-19T06:48:06;35.00;;;30.30;;
29384;SDS011;16367;48.736;9.218;2022-08-19T06:50:11;34.17;;;29.60;;
29384;SDS011;16367;48.736;9.218;2022-08-19T06:52:15;36.47;;;30.20;;
29384;SDS011;16367;48.736;9.218;2022-08-19T06:54:19;36.23;;;30.50;;
29384;SDS011;16367;48.736;9.218;2022-08-19T06:56:26;33.50;;;29.87;;
29384;SDS011;16367;48.736;9.218;2022-08-19T06:58:35;34.47;;;28.73;;
29384;SDS011;16367;48.736;9.218;2022-08-19T07:00:39;34.90;;;29.17;;
29384;SDS011;16367;48.736;9.218;2022-08-19T07:02:42;32.97;;;29.40;;
29384;SDS011;16367;48.736;9.218;2022-08-19T07:04:57;31.83;;;28.20;;
29384;SDS011;16367;48.736;9.218;2022-08-19T07:07:03;33.60;;;28.27;;
29384;SDS011;16367;48.736;9.218;2022-08-19T07:09:20;32.47;;;28.60;;
29384;SDS011;16367;48.736;9.218;2022-08-19T07:11:25;32.63;;;28.23;;
29384;SDS011;16367;48.736;9.218;2022-08-19T07:13:29;34.10;;;28.60;;
29384;SDS011;16367;48.736;9.218;2022-08-19T07:15:37;31.97;;;27.47;;
29384;SDS011;16367;48.736;9.218;2022-08-19T07:17:40;30.53;;;26.80;;
29384;SDS011;16367;48.736;9.218;2022-08-19T07:19:44;30.80;;;27.50;;
29384;SDS011;16367;48.736;9.218;2022-08-19T07:21:48;32.30;;;27.67;;
29384;SDS011;16367;48.736;9.218;2022-08-19T07:23:54;30.53;;;26.33;;
29384;SDS011;16367;48.736;9.218;2022-08-19T07:25:57;31.67;;;28.17;;
29384;SDS011;16367;48.736;9.218;2022-08-19T07:28:02;34.77;;;27.87;;
29384;SDS011;16367;48.736;9.218;2022-08-19T07:30:05;31.07;;;27.67;;
29384;SDS011;16367;48.736;9.218;2022-08-19T07:32:12;32.07;;;27.07;;
29384;SDS011;16367;48.736;9.218;2022-08-19T07:34:15;30.87;;;27.27;;
29384;SDS011;16367;48.736;9.218;2022-08-19T07:36:20;31.67;;;26.17;;
29384;SDS011;16367;48.736;9.218;2022-08-19T07:38:26;32.57;;;26.50;;
29384;SDS011;16367;48.736;9.218;2022-08-19T07:40:29;30.00;;;25.77;;
29384;SDS011;16367;48.736;9.218;2022-08-19T07:42:32;33.30;;;27.77;;
29384;SDS011;16367;48.736;9.218;2022-08-19T07:44:36;34.03;;;28.20;;
29384;SDS011;16367;48.736;9.218;2022-08-19T07:46:41;31.53;;;28.10;;
29384;SDS011;16367;48.736;9.218;2022-08-19T07:48:49;33.10;;;29.50;;
29384;SDS011;16367;48.736;9.218;2022-08-19T07:50:53;35.40;;;29.27;;
29384;SDS011;16367;48.736;9.218;2022-08-19T07:52:58;31.80;;;28.03;;
29384;SDS011;16367;48.736;9.218;2022-08-19T07:55:00;32.77;;;29.23;;
29384;SDS011;16367;48.736;9.218;2022-08-19T07:57:05;33.40;;;28.43;;
29384;SDS011;16367;48.736;9.218;2022-08-19T07:59:08;39.57;;;31.00;;
29384;SDS011;16367;48.736;9.218;2022-08-19T08:01:13;35.73;;;28.27;;
29384;SDS011;16367;48.736;9.218;2022-08-19T08:03:19;36.03;;;28.80;;
29384;SDS011;16367;48.736;9.218;2022-08-19T08:05:44;32.30;;;27.83;;
29384;SDS011;16367;48.736;9.218;2022-08-19T08:08:05;34.93;;;30.83;;
29384;SDS011;16367;48.736;9.218;2022-08-19T08:10:44;35.43;;;29.67;;
29384;SDS011;16367;48.736;9.218;2022-08-19T08:12:53;34.40;;;29.27;;
29384;SDS011;16367;48.736;9.218;2022-08-19T08:15:13;32.50;;;28.00;;
29384;SDS011;16367;48.736;9.218;2022-08-19T08:17:23;37.73;;;30.00;;
29384;SDS011;16367;48.736;9.218;2022-08-19T08:19:47;37.47;;;29.87;;
29384;SDS011;16367;48.736;9.218;2022-08-19T08:21:52;35.73;;;29.77;;
29384;SDS011;16367;48.736;9.218;2022-08-19T08:23:56;41.23;;;31.73;;
29384;SDS011;16367;48.736;9.218;2022-08-19T08:25:57;39.47;;;31.13;;
29384;SDS011;16367;48.736;9.218;2022-08-19T08:28:02;35.97;;;30.70;;
29384;SDS011;16367;48.736;9.218;2022-08-19T08:30:06;36.27;;;31.50;;
29384;SDS011;16367;48.736;9.218;2022-08-19T08:32:11;31.73;;;28.30;;
29384;SDS011;16367;48.736;9.218;2022-08-19T08:34:16;34.90;;;29.63;;
29384;SDS011;16367;48.736;9.218;2022-08-19T08:36:19;36.90;;;29.30;;
29384;SDS011;16367;48.736;9.218;2022-08-19T08:38:22;32.77;;;28.70;;
29384;SDS011;16367;48.736;9.218;2022-08-19T08:40:29;36.00;;;29.20;;
29384;SDS011;16367;48.736;9.218;2022-08-19T08:42:36;34.17;;;29.10;;
29384;SDS011;16367;48.736;9.218;2022-08-19T08:44:49;41.40;;;30.47;;
29384;SDS011;16367;48.736;9.218;2022-08-19T08:47:04;36.53;;;29.50;;
29384;SDS011;16367;48.736;9.218;2022-08-19T08:49:18;33.17;;;28.17;;
29384;SDS011;16367;48.736;9.218;2022-08-19T08:51:29;34.97;;;30.60;;
29384;SDS011;16367;48.736;9.218;2022-08-19T08:53:36;35.13;;;29.03;;
29384;SDS011;16367;48.736;9.218;2022-08-19T08:55:42;36.03;;;29.70;;
29384;SDS011;16367;48.736;9.218;2022-08-19T08:57:51;35.57;;;30.03;;
29384;SDS011;16367;48.736;9.218;2022-08-19T08:59:58;35.57;;;29.03;;
29384;SDS011;16367;48.736;9.218;2022-08-19T09:02:15;35.27;;;30.30;;
29384;SDS011;16367;48.736;9.218;2022-08-19T09:04:19;34.00;;;29.83;;
29384;SDS011;16367;48.736;9.218;2022-08-19T09:06:25;33.37;;;28.03;;
29384;SDS011;16367;48.736;9.218;2022-08-19T09:08:38;33.50;;;28.80;;
29384;SDS011;16367;48.736;9.218;2022-08-19T09:10:49;34.17;;;29.70;;
29384;SDS011;16367;48.736;9.218;2022-08-19T09:12:57;35.07;;;27.97;;
29384;SDS011;16367;48.736;9.218;2022-08-19T09:15:13;31.07;;;27.73;;
29384;SDS011;16367;48.736;9.218;2022-08-19T09:17:19;32.70;;;28.27;;
29384;SDS011;16367;48.736;9.218;2022-08-19T09:19:30;34.63;;;28.90;;
29384;SDS011;16367;48.736;9.218;2022-08-19T09:21:33;32.47;;;28.30;;
29384;SDS011;16367;48.736;9.218;2022-08-19T09:23:38;33.03;;;29.23;;
29384;SDS011;16367;48.736;9.218;2022-08-19T09:25:41;34.80;;;28.30;;
29384;SDS011;16367;48.736;9.218;2022-08-19T09:27:44;31.53;;;28.10;;
29384;SDS011;16367;48.736;9.218;2022-08-19T09:29:47;32.63;;;28.60;;
29384;SDS011;16367;48.736;9.218;2022-08-19T09:31:50;33.00;;;29.43;;
29384;SDS011;16367;48.736;9.218;2022-08-19T09:33:53;32.93;;;28.40;;
29384;SDS011;16367;48.736;9.218;2022-08-19T09:36:03;35.73;;;28.57;;
29384;SDS011;16367;48.736;9.218;2022-08-19T09:38:09;34.60;;;29.10;;
29384;SDS011;16367;48.736;9.218;2022-08-19T09:40:12;31.23;;;27.77;;
29384;SDS011;16367;48.736;9.218;2022-08-19T09:42:15;33.30;;;29.40;;
29384;SDS011;16367;48.736;9.218;2022-08-19T09:44:30;31.53;;;27.10;;
29384;SDS011;16367;48.736;9.218;2022-08-19T09:46:34;32.63;;;28.77;;
29384;SDS011;16367;48.736;9.218;2022-08-19T09:48:37;33.47;;;28.33;;
29384;SDS011;16367;48.736;9.218;2022-08-19T09:50:40;31.60;;;28.03;;
29384;SDS011;16367;48.736;9.218;2022-08-19T09:52:53;35.60;;;29.70;;
29384;SDS011;16367;48.736;9.218;2022-08-19T09:54:58;32.83;;;28.53;;
29384;SDS011;16367;48.736;9.218;2022-08-19T09:57:07;34.60;;;30.30;;
29384;SDS011;16367;48.736;9.218;2022-08-19T09:59:10;32.40;;;28.90;;
29384;SDS011;16367;48.736;9.218;2022-08-19T10:01:17;32.90;;;29.37;;
29384;SDS011;16367;48.736;9.218;2022-08-19T10:03:21;36.40;;;29.00;;
29384;SDS011;16367;48.736;9.218;2022-08-19T10:05:25;33.30;;;28.57;;
29384;SDS011;16367;48.736;9.218;2022-08-19T10:07:49;34.50;;;30.30;;
29384;SDS011;16367;48.736;9.218;2022-08-19T10:09:53;36.00;;;31.17;;
29384;SDS011;16367;48.736;9.218;2022-08-19T10:11:56;32.60;;;29.20;;
29384;SDS011;16367;48.736;9.218;2022-08-19T10:14:03;31.57;;;27.73;;
29384;SDS011;16367;48.736;9.218;2022-08-19T10:16:08;36.27;;;29.47;;
29384;SDS011;16367;48.736;9.218;2022-08-19T10:18:13;35.93;;;31.10;;
29384;SDS011;16367;48.736;9.218;2022-08-19T10:20:19;31.40;;;27.60;;
29384;SDS011;16367;48.736;9.218;2022-08-19T10:22:23;31.87;;;28.53;;
29384;SDS011;16367;48.736;9.218;2022-08-19T10:24:26;32.10;;;28.10;;
29384;SDS011;16367;48.736;9.218;2022-08-19T10:26:32;33.80;;;27.67;;
29384;SDS011;16367;48.736;9.218;2022-08-19T10:28:37;30.43;;;27.13;;
29384;SDS011;16367;48.736;9.218;2022-08-19T10:30:42;31.17;;;27.87;;
29384;SDS011;16367;48.736;9.218;2022-08-19T10:32:45;31.80;;;28.23;;
29384;SDS011;16367;48.736;9.218;2022-08-19T10:34:48;31.40;;;26.60;;
29384;SDS011;16367;48.736;9.218;2022-08-19T10:36:57;31.40;;;28.10;;
29384;SDS011;16367;48.736;9.218;2022-08-19T10:39:03;31.43;;;28.13;;
29384;SDS011;16367;48.736;9.218;2022-08-19T10:41:10;31.23;;;27.73;;
29384;SDS011;16367;48.736;9.218;2022-08-19T10:43:16;30.70;;;27.43;;
29384;SDS011;16367;48.736;9.218;2022-08-19T10:45:19;30.07;;;25.80;;
29384;SDS011;16367;48.736;9.218;2022-08-19T10:47:24;27.30;;;24.53;;
29384;SDS011;16367;48.736;9.218;2022-08-19T10:49:32;28.60;;;25.20;;
29384;SDS011;16367;48.736;9.218;2022-08-19T10:51:56;28.93;;;26.00;;
29384;SDS011;16367;48.736;9.218;2022-08-19T10:54:21;28.30;;;25.40;;
29384;SDS011;16367;48.736;9.218;2022-08-19T10:56:33;27.77;;;24.97;;
29384;SDS011;16367;48.736;9.218;2022-08-19T10:58:55;31.67;;;26.10;;
29384;SDS011;16367;48.736;9.218;2022-08-19T11:00:59;28.50;;;25.50;;
29384;SDS011;16367;48.736;9.218;2022-08-19T11:03:01;28.50;;;25.53;;
29384;SDS011;16367;48.736;9.218;2022-08-19T11:05:05;26.73;;;24.03;;
29384;SDS011;16367;48.736;9.218;2022-08-19T11:07:13;29.37;;;26.27;;
29384;SDS011;16367;48.736;9.218;2022-08-19T11:09:17;25.63;;;22.93;;
29384;SDS011;16367;48.736;9.218;2022-08-19T11:11:21;25.77;;;23.07;;
29384;SDS011;16367;48.736;9.218;2022-08-19T11:13:25;25.63;;;23.07;;
29384;SDS011;16367;48.736;9.218;2022-08-19T11:15:29;25.40;;;22.90;;
29384;SDS011;16367;48.736;9.218;2022-08-19T11:17:34;25.47;;;22.77;;
29384;SDS011;16367;48.736;9.218;2022-08-19T11:19:41;25.83;;;23.10;;
29384;SDS011;16367;48.736;9.218;2022-08-19T11:21:45;25.67;;;23.07;;
29384;SDS011;16367;48.736;9.218;2022-08-19T11:23:50;23.80;;;21.40;;
29384;SDS011;16367;48.736;9.218;2022-08-19T11:25:59;23.77;;;21.27;;
29384;SDS011;16367;48.736;9.218;2022-08-19T11:28:03;24.50;;;20.87;;
29384;SDS011;16367;48.736;9.218;2022-08-19T11:30:07;22.77;;;20.47;;
29384;SDS011;16367;48.736;9.218;2022-08-19T11:32:15;23.60;;;21.20;;
29384;SDS011;16367;48.736;9.218;2022-08-19T11:34:19;23.40;;;21.03;;
29384;SDS011;16367;48.736;9.218;2022-08-19T11:36:25;21.43;;;19.40;;
29384;SDS011;16367;48.736;9.218;2022-08-19T11:38:30;20.37;;;18.27;;
29384;SDS011;16367;48.736;9.218;2022-08-19T11:40:33;23.93;;;20.60;;
29384;SDS011;16367;48.736;9.218;2022-08-19T11:42:35;25.30;;;22.60;;
29384;SDS011;16367;48.736;9.218;2022-08-19T11:44:55;26.10;;;23.30;;
29384;SDS011;16367;48.736;9.218;2022-08-19T11:46:58;27.67;;;24.83;;
29384;SDS011;16367;48.736;9.218;2022-08-19T11:49:11;26.27;;;23.47;;
29384;SDS011;16367;48.736;9.218;2022-08-19T11:51:15;28.03;;;25.07;;
29384;SDS011;16367;48.736;9.218;2022-08-19T11:53:22;29.10;;;26.20;;
29384;SDS011;16367;48.736;9.218;2022-08-19T11:55:26;28.37;;;25.57;;
29384;SDS011;16367;48.736;9.218;2022-08-19T11:57:28;30.10;;;26.87;;
29384;SDS011;16367;48.736;9.218;2022-08-19T11:59:31;26.07;;;23.27;;
29384;SDS011;16367;48.736;9.218;2022-08-19T12:01:34;27.77;;;25.00;;
29384;SDS011;16367;48.736;9.218;2022-08-19T12:03:37;26.93;;;24.03;;
29384;SDS011;16367;48.736;9.218;2022-08-19T12:05:42;28.83;;;25.77;;
29384;SDS011;16367;48.736;9.218;2022-08-19T12:07:44;27.20;;;24.30;;
29384;SDS011;16367;48.736;9.218;2022-08-19T12:09:47;29.43;;;26.33;;
29384;SDS011;16367;48.736;9.218;2022-08-19T12:11:50;28.20;;;25.07;;
29384;SDS011;16367;48.736;9.218;2022-08-19T12:13:53;31.80;;;28.50;;
29384;SDS011;16367;48.736;9.218;2022-08-19T12:15:56;32.20;;;28.50;;
29384;SDS011;16367;48.736;9.218;2022-08-19T12:17:59;34.30;;;30.70;;